Airport Name : Essey

Other Name : Nancy Essey

ICAO : LFSN

IATA : ENC

FAA :

Latitude : 48.692069

Longitude : 6.230458

Country : France

Local Date and Time : 17 Oct 2021 09:32

 

TAF (Terminal Aerodrome Forecast)

 

METAR (METeorological Aerodrome Report)

LFSN 170730Z AUTO 17003KT 1300 1000 R03/1500N BR VV/// 06/06 Q1021

LFSN 170700Z AUTO 16003KT 1200 1000 R03/1500N BR VV/// 06/06 Q1021

LFSN 170630Z AUTO 15003KT 5000 BR VV/// 06/06 Q1021

LFSN 170600Z AUTO 13003KT 1100 R03/1400U BR VV/// 06/06 Q1020

LFSN 170530Z AUTO 13003KT 0800 R03/0800U FG VV/// 06/06 Q1020

LFSN 170500Z AUTO VRB02KT 1300 1000 R03/1300D BR VV/// 05/05 Q1020

LFSN 170430Z AUTO 15002KT 0800 R03/0900U FG VV/// 06/06 Q1020

LFSN 170400Z AUTO VRB02KT 0500 0450 R03/0550N FG VV/// 05/05 Q1020

To Charter a Jet Click here.